Aspen Hill, MD

8:03 AM EDT on October 31, 2014 (GMT -0400)
Parker Ave, Wheaton, MD | Change Station
CLOSE
Current Station
Personal Weather Station
Location: Wheaton, Silver Spring, MD
Elevation: 390 ft
Nearby Weather Stations

Elev 390 ft 39.05 °N, 77.06 °W | Updated 6 seconds ago

Mostly Cloudy
Mostly Cloudy
44.4 °F
Feels Like 44 °F
N
0.0
Wind Variable Wind from ENE
Gusts 0.0 mph

Today
High -- | Low -- °F
--% Chance of Precip.
Yesterday
High -- | Low -- °F
Precip. -- in
7:34 AM 6:08 PM
First Quarter, 54% visible
Pressure 30.03 in
Visibility 10.0 miles
Clouds Overcast 5000 ft
Windchill 44 °F
Dew Point 39 °F
Humidity 81%
Rainfall 0.00 in
Snow Depth Not available.
UV 0 out of 12
Pollen .80 out of 12
Air Quality Not available.
Flu Activity Not available.
METAR KGAI 311155Z 00000KT 10SM OVC050 07/03 A3003 RMK AO1 10070 20060 57003

More Conditions Fewer Conditions

Pressure 30.03 in
Visibility 10.0 miles
Clouds Overcast 5000 ft
Windchill 44 °F
Dew Point 39 °F
Humidity 81%
Rainfall 0.00 in
Snow Depth Not available.
UV 0 out of 12
Pollen .80 out of 12
Air Quality Not available.
Flu Activity Not available.
METAR KGAI 311155Z 00000KT 10SM OVC050 07/03 A3003 RMK AO1 10070 20060 57003

More Conditions Fewer Conditions

10-Day Weather Forecast

Almanac

Astronomy

Oct. 31, 2014 Rise Set
Actual Time
Civil Twilight
Nautical Twilight
Astronomical Twilight
Moon
Length of Visible Light
Length of Day
Tomorrow will be .
, % of the Moon is Illuminated

Today's Extremes

State Highs State Lows

Community

WunderPhotos

Upload Photos

1,766,589 photos uploaded!

WunderBlogs® & News

Nearby

Air Quality

  Air Quality AQ Index Pollutant
Not available.

Snow Depth

Station Depth Elevation

Earthquake Activity

City Distance Mag. Time & Date
Minimum magnitude displayed is 2.5.

Coastal Water Temperatures

Place Temperature

Nearby Weather Stations